Decoded Metar for CWZZ (SAGLEK (BAY) in NL, CANADA) (IATA:WZZ) | Meteo·Mobile Aviation Weather
aviador You're here:

CWZZ Decoded Metar

SAGLEK (BAY) in NL, CANADA
Report Time2019-10-18 14:36:00
UTC Time2019-10-18 14:43:28
Flight Rules lifr LIFR
Wind080° at 06 kt
Visibility0 m
Phenomena:N/A
Clouds:Broken 004 Hf
Overcast 008 Hf
Ceiling400 ft
Temp-1°C (ISA -13)
Dew Point-1°C (100% RH)
AAT-5.3°C
QNH1013 hPa
Density Alt102 ft
Elevation1,585 ft
Report Wrong Elevation
Raw Report
SPECI CWZZ 181436Z AUTO 08006KT ////SM BKN004 OVC008 M01/M01 A2991=

Extra information for CWZZ:More info

Metar Taf Metar & Taf Last 4 Metars F.Rules Stats Wind Profile Meteogram Temp Stats Airport Information Weather charts Add Link Nearby VenuesMetar ALERT Operation Metar Decoded Social comments